Time;durP1;ratioP1;P1;durP2;ratioP2;P2;SDS_P1;SDS_P2;PMS_P1;PMS_P2;Temp;Humidity;BMP_temperature;BMP_pressure;BME280_temperature;BME280_humidity;BME280_pressure;Samples;Min_cycle;Max_cycle;Signal;HPM_P1;HPM_P2
2021/03/29 08:23:17;;;;;;;3.92;1.38;;;20.20;89.20;;;;;;2648827;23;21218;-70
2021/03/29 08:25:44;;;;;;;3.30;1.05;;;20.00;87.40;;;;;;4907959;29;20219;-70
2021/03/29 08:28:10;;;;;;;4.13;1.20;;;20.10;87.70;;;;;;4907227;29;20257;-70
2021/03/29 08:30:41;;;;;;;4.18;1.30;;;20.10;88.20;;;;;;4918325;29;20233;-70
2021/03/29 08:33:11;;;;;;;2.60;1.33;;;19.80;86.80;;;;;;4913585;29;20293;-74
2021/03/29 08:35:38;;;;;;;3.33;1.30;;;19.30;87.50;;;;;;4916338;29;20214;-73
2021/03/29 08:38:09;;;;;;;3.03;1.48;;;19.10;87.60;;;;;;4916525;29;20218;-74
2021/03/29 08:40:35;;;;;;;4.90;1.83;;;18.70;90.00;;;;;;4914789;29;20229;-72
2021/03/29 08:43:05;;;;;;;3.03;1.08;;;18.70;89.10;;;;;;4915929;29;20205;-72
2021/03/29 08:45:33;;;;;;;2.25;1.25;;;18.40;88.60;;;;;;4916894;29;20217;-72
2021/03/29 08:48:02;;;;;;;3.00;1.10;;;18.60;89.10;;;;;;4917050;29;20250;-72
2021/03/29 08:50:30;;;;;;;4.28;1.63;;;18.70;88.50;;;;;;4917958;29;20312;-71
2021/03/29 08:52:59;;;;;;;5.13;1.20;;;18.80;87.60;;;;;;4916703;29;20221;-71
2021/03/29 08:55:29;;;;;;;3.88;1.20;;;19.30;87.80;;;;;;4915630;29;20212;-72
2021/03/29 08:57:57;;;;;;;3.78;1.20;;;19.70;85.70;;;;;;4915691;29;20213;-73
2021/03/29 09:00:26;;;;;;;2.97;1.23;;;20.10;85.90;;;;;;4915679;29;20344;-73
2021/03/29 09:02:53;;;;;;;5.45;1.63;;;20.20;85.90;;;;;;4914642;29;20217;-77
2021/03/29 09:05:22;;;;;;;3.40;1.17;;;20.20;84.70;;;;;;4915978;29;20257;-72
2021/03/29 09:07:50;;;;;;;3.85;1.30;;;19.50;84.50;;;;;;4915494;29;20213;-72
2021/03/29 09:10:19;;;;;;;4.55;1.33;;;19.20;84.60;;;;;;4914709;29;20684;-83
2021/03/29 09:12:51;;;;;;;5.40;1.30;;;19.20;86.20;;;;;;4915351;29;20247;-74
2021/03/29 09:15:18;;;;;;;3.08;1.10;;;19.50;85.80;;;;;;4915395;29;20281;-78
2021/03/29 09:17:55;;;;;;;4.05;0.98;;;20.00;83.70;;;;;;4915009;29;20210;-74
2021/03/29 09:20:23;;;;;;;4.47;1.20;;;19.40;83.90;;;;;;4915010;29;20300;-74
2021/03/29 09:22:49;;;;;;;3.50;1.27;;;19.20;83.30;;;;;;4914994;29;20669;-73
2021/03/29 09:25:24;;;;;;;3.88;1.35;;;19.00;84.90;;;;;;4915208;29;20220;-73
2021/03/29 09:28:10;;;;;;;6.50;1.45;;;19.20;85.80;;;;;;4915433;29;20211;-72
2021/03/29 09:30:37;;;;;;;4.18;1.05;;;19.20;84.00;;;;;;4914942;29;20237;-75
2021/03/29 09:33:04;;;;;;;3.37;1.13;;;18.80;84.70;;;;;;4914844;29;20213;-68
2021/03/29 09:35:31;;;;;;;3.57;0.90;;;18.60;83.70;;;;;;4915146;29;20217;-74
2021/03/29 09:37:57;;;;;;;2.57;1.00;;;18.30;84.60;;;;;;4916049;29;20272;-74
2021/03/29 09:40:24;;;;;;;2.90;1.23;;;18.00;86.30;;;;;;4915055;29;20582;-73
2021/03/29 09:42:53;;;;;;;3.07;1.10;;;17.80;85.10;;;;;;4915069;29;20257;-72
2021/03/29 09:45:23;;;;;;;2.87;1.03;;;17.70;86.90;;;;;;4915635;29;20348;-69
2021/03/29 09:48:00;;;;;;;1.80;0.80;;;17.70;84.40;;;;;;4915650;29;20217;-72
2021/03/29 09:50:31;;;;;;;2.73;1.10;;;17.40;85.70;;;;;;4915394;29;20268;-70
2021/03/29 09:53:09;;;;;;;7.07;3.17;;;17.30;86.00;;;;;;4916261;29;20216;-73
2021/03/29 09:55:47;;;;;;;5.37;1.27;;;17.40;86.90;;;;;;4916158;29;20214;-70
2021/03/29 09:58:21;;;;;;;4.17;1.07;;;17.40;85.70;;;;;;4916488;29;20213;-73
2021/03/29 10:00:48;;;;;;;3.43;0.90;;;17.30;84.70;;;;;;4916345;29;20240;-71
2021/03/29 10:03:18;;;;;;;3.93;1.20;;;17.40;83.80;;;;;;4916332;29;20304;-71
2021/03/29 10:05:46;;;;;;;4.50;0.80;;;17.60;84.50;;;;;;4916126;29;20217;-71
2021/03/29 10:08:23;;;;;;;4.37;1.00;;;17.80;85.60;;;;;;4915965;29;20577;-71
2021/03/29 10:10:58;;;;;;;3.27;1.13;;;17.90;83.60;;;;;;4917647;29;20228;-69
2021/03/29 10:13:31;;;;;;;2.87;1.10;;;18.10;84.50;;;;;;4921202;29;20202;-69
2021/03/29 10:15:59;;;;;;;5.30;1.30;;;18.30;85.00;;;;;;4923910;29;20668;-72
2021/03/29 10:18:31;;;;;;;1.20;0.80;;;18.40;85.20;;;;;;4921728;29;20229;-72
2021/03/29 10:21:03;;;;;;;4.47;1.10;;;18.40;81.50;;;;;;4926078;29;20244;-74
2021/03/29 10:23:31;;;;;;;3.70;1.03;;;18.30;82.50;;;;;;4922504;29;20217;-70
2021/03/29 10:26:19;;;;;;;3.70;0.90;;;18.40;82.70;;;;;;4926693;29;20201;-72
2021/03/29 10:28:56;;;;;;;4.63;1.00;;;18.50;81.80;;;;;;4934198;29;20223;-72
2021/03/29 10:31:23;;;;;;;4.17;1.10;;;18.60;83.00;;;;;;4914012;29;20241;-71
2021/03/29 10:33:49;;;;;;;1.30;0.70;;;18.60;81.80;;;;;;4915891;29;20214;-69
2021/03/29 10:36:17;;;;;;;1.97;1.03;;;18.60;80.60;;;;;;4916153;29;20206;-70
2021/03/29 10:38:44;;;;;;;3.73;0.83;;;18.70;80.50;;;;;;4926929;29;20600;-71
2021/03/29 10:41:11;;;;;;;1.57;0.80;;;18.70;80.70;;;;;;4924297;29;20237;-71
2021/03/29 10:43:37;;;;;;;1.87;1.00;;;18.70;80.30;;;;;;4915856;29;20213;-71
2021/03/29 10:46:04;;;;;;;3.53;1.00;;;18.70;79.40;;;;;;4916210;29;20225;-72
2021/03/29 10:48:31;;;;;;;3.93;0.70;;;18.80;81.60;;;;;;4919460;29;20560;-73
2021/03/29 10:50:59;;;;;;;2.63;0.87;;;18.90;79.90;;;;;;4914267;29;20225;-72
2021/03/29 10:53:26;;;;;;;2.87;0.77;;;19.10;78.90;;;;;;4917084;29;20213;-68
2021/03/29 10:55:52;;;;;;;2.90;0.67;;;19.20;78.40;;;;;;4917932;29;20225;-75
2021/03/29 10:58:19;;;;;;;3.80;1.00;;;19.20;74.70;;;;;;4922444;29;20224;-73
2021/03/29 11:00:46;;;;;;;2.30;0.60;;;19.10;75.00;;;;;;4936112;29;20244;-73
2021/03/29 11:03:13;;;;;;;2.20;0.97;;;19.20;77.60;;;;;;4917337;29;20617;-73
2021/03/29 11:05:39;;;;;;;2.08;0.75;;;19.40;76.30;;;;;;4918274;29;20210;-72
2021/03/29 11:08:05;;;;;;;1.73;0.70;;;19.50;76.20;;;;;;4917631;29;20227;-72
2021/03/29 11:10:33;;;;;;;2.10;0.63;;;19.40;75.00;;;;;;4917548;29;20237;-74
2021/03/29 11:13:00;;;;;;;1.27;0.70;;;19.40;76.30;;;;;;4917824;29;20217;-75
2021/03/29 11:15:26;;;;;;;2.50;0.60;;;19.40;74.40;;;;;;4917289;29;20213;-71
2021/03/29 11:17:53;;;;;;;1.43;0.77;;;19.30;72.60;;;;;;4918803;29;20217;-71
2021/03/29 11:20:19;;;;;;;3.58;0.70;;;19.40;74.00;;;;;;4918273;29;20272;-71
2021/03/29 11:22:46;;;;;;;2.60;0.90;;;19.40;75.30;;;;;;4918219;29;20222;-70
2021/03/29 11:25:14;;;;;;;0.70;0.60;;;19.50;74.00;;;;;;4918529;29;20209;-70
2021/03/29 11:27:42;;;;;;;2.05;0.70;;;19.40;75.60;;;;;;4918888;29;20209;-70
2021/03/29 11:30:10;;;;;;;2.65;0.90;;;19.50;75.50;;;;;;4919223;29;20236;-71
2021/03/29 11:32:37;;;;;;;1.77;0.95;;;19.60;77.10;;;;;;4919051;29;20213;-71
2021/03/29 11:35:04;;;;;;;1.48;0.98;;;19.60;74.90;;;;;;4918830;29;20273;-71
2021/03/29 11:37:30;;;;;;;1.20;0.73;;;19.60;74.70;;;;;;4919105;29;20261;-70
2021/03/29 11:39:57;;;;;;;2.22;1.13;;;19.70;75.90;;;;;;4918673;29;20245;-71
2021/03/29 11:42:23;;;;;;;5.82;0.90;;;19.70;75.00;;;;;;4918583;29;20218;-71
2021/03/29 11:44:50;;;;;;;3.53;0.75;;;19.70;75.70;;;;;;4918738;29;20225;-71
2021/03/29 11:47:16;;;;;;;1.55;0.75;;;19.80;75.30;;;;;;4918595;29;20210;-71
2021/03/29 11:49:43;;;;;;;4.25;1.10;;;19.80;76.10;;;;;;4918363;29;20236;-71
2021/03/29 11:52:09;;;;;;;5.75;1.10;;;19.90;75.40;;;;;;4918584;29;20218;-71
2021/03/29 11:54:35;;;;;;;5.53;0.93;;;19.90;75.00;;;;;;4918256;29;20577;-71
2021/03/29 11:57:01;;;;;;;2.20;0.93;;;19.90;73.00;;;;;;4917975;29;20214;-71
2021/03/29 11:59:28;;;;;;;4.73;1.20;;;19.90;74.80;;;;;;4918374;29;20300;-70
2021/03/29 12:01:58;;;;;;;2.83;0.82;;;19.90;74.40;;;;;;4918440;29;20206;-70
2021/03/29 12:04:29;;;;;;;1.77;0.82;;;20.00;75.80;;;;;;4918304;29;20217;-70
2021/03/29 12:06:57;;;;;;;2.72;1.20;;;20.00;76.80;;;;;;4918089;29;20217;-70
2021/03/29 12:09:31;;;;;;;1.88;0.90;;;19.90;77.80;;;;;;4917931;29;20216;-70
2021/03/29 12:12:04;;;;;;;3.20;1.20;;;20.00;76.30;;;;;;4918416;29;20229;-70
2021/03/29 12:14:32;;;;;;;2.33;1.10;;;19.90;75.70;;;;;;4918300;29;20218;-70
2021/03/29 12:17:00;;;;;;;5.05;1.00;;;20.00;77.10;;;;;;4917689;29;20578;-71
2021/03/29 12:19:28;;;;;;;5.00;0.90;;;20.00;76.70;;;;;;4914420;29;20952;-69
2021/03/29 12:22:00;;;;;;;1.85;1.02;;;19.90;74.60;;;;;;4917748;29;20696;-69
2021/03/29 12:24:33;;;;;;;2.42;1.05;;;20.00;75.40;;;;;;4917570;29;20221;-70
2021/03/29 12:27:01;;;;;;;1.85;1.00;;;20.10;75.80;;;;;;4918028;29;20206;-68
2021/03/29 12:29:36;;;;;;;5.75;1.10;;;20.00;75.50;;;;;;4917384;29;20209;-70
2021/03/29 12:32:05;;;;;;;1.85;1.00;;;20.10;77.10;;;;;;4917672;29;20209;-69
2021/03/29 12:34:33;;;;;;;2.45;1.00;;;20.20;76.30;;;;;;4917589;29;20213;-70
2021/03/29 12:37:00;;;;;;;4.05;1.33;;;20.10;71.70;;;;;;4917773;29;20232;-70
2021/03/29 12:39:28;;;;;;;4.43;1.20;;;20.00;73.30;;;;;;4917244;29;20269;-70
2021/03/29 12:41:57;;;;;;;5.13;1.55;;;20.00;73.50;;;;;;4917599;29;20213;-69
2021/03/29 12:44:23;;;;;;;2.28;1.25;;;20.10;74.50;;;;;;4917087;29;20213;-69
2021/03/29 12:46:55;;;;;;;2.85;1.10;;;20.10;72.80;;;;;;4917189;29;20206;-69
2021/03/29 12:49:22;;;;;;;4.22;1.10;;;20.10;73.90;;;;;;4917325;29;20213;-70
2021/03/29 12:51:54;;;;;;;4.32;1.20;;;20.10;75.20;;;;;;4917501;29;20212;-69
2021/03/29 12:54:23;;;;;;;2.35;1.05;;;20.20;71.70;;;;;;4917231;29;20209;-69
2021/03/29 12:56:49;;;;;;;2.67;1.33;;;20.20;72.50;;;;;;4917407;29;20210;-69
2021/03/29 12:59:17;;;;;;;6.40;1.13;;;20.10;73.20;;;;;;4916789;29;20713;-69
2021/03/29 13:01:44;;;;;;;4.95;1.10;;;20.10;73.10;;;;;;4917090;29;20220;-69
2021/03/29 13:04:13;;;;;;;1.73;0.95;;;20.10;70.00;;;;;;4917323;29;20214;-68
2021/03/29 13:06:44;;;;;;;3.42;1.40;;;20.00;71.70;;;;;;4916933;29;20285;-69
2021/03/29 13:09:16;;;;;;;3.95;1.20;;;20.10;72.60;;;;;;4916259;29;20209;-68
2021/03/29 13:11:42;;;;;;;3.58;1.20;;;20.20;74.20;;;;;;4917212;29;20214;-69
2021/03/29 13:14:11;;;;;;;4.55;1.20;;;20.30;73.70;;;;;;4916783;29;20209;-69
2021/03/29 13:16:38;;;;;;;4.78;1.52;;;20.50;74.50;;;;;;4917050;29;20247;-69
2021/03/29 13:19:04;;;;;;;5.43;1.38;;;20.50;74.10;;;;;;4916786;29;20626;-69
2021/03/29 13:21:32;;;;;;;2.72;1.00;;;20.50;73.90;;;;;;4916596;29;20916;-69
2021/03/29 13:24:01;;;;;;;6.00;1.15;;;20.60;74.60;;;;;;4916778;29;20224;-69
2021/03/29 13:26:28;;;;;;;2.85;1.40;;;20.60;72.90;;;;;;4916495;29;20210;-70
2021/03/29 13:28:54;;;;;;;2.42;1.13;;;20.50;71.50;;;;;;4916968;29;20216;-68
2021/03/29 13:31:21;;;;;;;2.95;1.20;;;20.40;72.80;;;;;;4916826;29;20226;-69
2021/03/29 13:33:48;;;;;;;5.40;1.30;;;20.50;73.50;;;;;;4916692;29;20209;-69
2021/03/29 13:36:14;;;;;;;7.07;1.42;;;20.40;73.30;;;;;;4916848;29;20236;-71
2021/03/29 13:38:41;;;;;;;2.78;1.30;;;20.30;76.20;;;;;;4916538;29;20688;-69
2021/03/29 13:41:09;;;;;;;3.30;1.45;;;20.30;73.40;;;;;;4916541;29;20233;-69
2021/03/29 13:43:38;;;;;;;5.22;1.40;;;20.30;74.90;;;;;;4917040;29;20233;-69
2021/03/29 13:46:06;;;;;;;2.67;1.48;;;20.30;73.80;;;;;;4916852;29;20212;-69
2021/03/29 13:48:32;;;;;;;3.65;1.40;;;20.30;75.10;;;;;;4916508;29;20240;-69
2021/03/29 13:50:59;;;;;;;3.55;1.55;;;20.40;74.60;;;;;;4916416;29;20269;-69
2021/03/29 13:53:27;;;;;;;2.85;1.35;;;20.40;73.50;;;;;;4916564;29;20695;-70
2021/03/29 13:55:53;;;;;;;9.05;1.30;;;20.50;71.70;;;;;;4916259;29;20228;-69
2021/03/29 13:58:21;;;;;;;2.30;1.63;;;20.50;73.90;;;;;;4916602;29;20700;-68
2021/03/29 14:00:47;;;;;;;2.63;1.30;;;20.50;71.90;;;;;;4916526;29;20245;-69
2021/03/29 14:03:17;;;;;;;2.28;1.40;;;20.50;71.40;;;;;;4916361;29;20210;-69
2021/03/29 14:05:43;;;;;;;6.95;1.80;;;20.50;73.70;;;;;;4916402;29;20253;-69
2021/03/29 14:08:10;;;;;;;2.50;1.60;;;20.60;73.70;;;;;;4916634;29;20269;-70
2021/03/29 14:10:37;;;;;;;4.65;1.83;;;20.60;73.60;;;;;;4916522;29;20237;-69
2021/03/29 14:13:07;;;;;;;5.00;1.45;;;20.60;74.10;;;;;;4916658;29;20238;-70
2021/03/29 14:15:34;;;;;;;4.35;1.88;;;20.50;72.90;;;;;;4916647;29;20300;-69
2021/03/29 14:18:02;;;;;;;4.07;1.40;;;20.50;73.20;;;;;;4916625;29;20613;-69
2021/03/29 14:20:28;;;;;;;4.07;1.83;;;20.40;72.50;;;;;;4918258;29;20250;-69
2021/03/29 14:22:54;;;;;;;6.68;1.77;;;20.40;73.50;;;;;;4913336;29;20228;-68
2021/03/29 14:25:22;;;;;;;4.53;1.65;;;20.40;73.70;;;;;;4920500;29;20209;-69
2021/03/29 14:27:49;;;;;;;2.60;1.60;;;20.40;72.70;;;;;;4919462;29;20688;-69
2021/03/29 14:30:16;;;;;;;2.20;1.55;;;20.50;72.60;;;;;;4938346;29;20787;-69
2021/03/29 14:32:44;;;;;;;5.53;2.03;;;20.60;71.00;;;;;;4928026;29;20249;-69
2021/03/29 14:35:19;;;;;;;4.35;1.42;;;20.50;71.40;;;;;;4918572;29;20262;-69
2021/03/29 14:43:45;;;;;;;3.83;2.03;;;20.60;73.80;;;;;;4923291;29;20225;-69
2021/03/29 14:46:11;;;;;;;3.38;1.88;;;20.60;73.10;;;;;;4918900;29;20645;-69
2021/03/29 14:48:38;;;;;;;4.05;2.10;;;20.60;73.70;;;;;;4918867;29;20273;-70
2021/03/29 14:51:05;;;;;;;7.03;2.47;;;20.60;72.90;;;;;;4919088;29;20233;-69
2021/03/29 14:53:31;;;;;;;3.83;2.30;;;20.60;74.20;;;;;;4918011;29;20221;-69
2021/03/29 14:55:57;;;;;;;5.88;1.85;;;20.60;74.30;;;;;;4918701;29;20216;-70
2021/03/29 14:58:23;;;;;;;5.57;2.08;;;20.60;74.20;;;;;;4918091;29;20209;-69
2021/03/29 15:00:49;;;;;;;4.07;2.10;;;20.70;74.80;;;;;;4918865;29;20598;-68
2021/03/29 15:03:19;;;;;;;5.95;1.88;;;20.70;74.70;;;;;;4918722;29;20848;-69
2021/03/29 15:05:51;;;;;;;3.63;2.40;;;20.80;73.00;;;;;;4918423;29;20210;-69
2021/03/29 15:08:17;;;;;;;5.10;1.92;;;20.70;72.40;;;;;;4918533;29;20570;-68
2021/03/29 15:10:44;;;;;;;3.95;1.98;;;20.60;74.60;;;;;;4917329;29;20230;-71
2021/03/29 15:13:10;;;;;;;6.75;2.35;;;20.60;72.80;;;;;;4914259;29;20636;-69
2021/03/29 15:15:36;;;;;;;3.10;2.05;;;20.50;72.60;;;;;;4917026;29;20230;-72
2021/03/29 15:18:02;;;;;;;4.88;2.20;;;20.60;73.70;;;;;;4917537;29;20210;-72
2021/03/29 15:20:29;;;;;;;3.33;2.30;;;20.50;73.00;;;;;;4916699;29;20237;-71
2021/03/29 15:22:57;;;;;;;6.88;2.70;;;20.50;75.30;;;;;;4917395;29;20281;-78
2021/03/29 15:25:23;;;;;;;5.03;2.60;;;20.50;74.80;;;;;;4917110;29;20491;-70
2021/03/29 15:27:49;;;;;;;3.70;2.10;;;20.50;75.90;;;;;;4916924;29;20241;-69
2021/03/29 15:30:17;;;;;;;3.67;2.50;;;20.40;74.30;;;;;;4916990;29;20590;-69
2021/03/29 15:32:43;;;;;;;3.80;2.15;;;20.40;74.80;;;;;;4916326;29;20210;-72
2021/03/29 15:35:10;;;;;;;5.60;2.40;;;20.40;73.00;;;;;;4915825;29;20573;-73
2021/03/29 15:37:38;;;;;;;6.30;2.85;;;20.30;73.30;;;;;;4916984;29;20538;-69
2021/03/29 15:40:07;;;;;;;4.90;2.85;;;20.30;73.70;;;;;;4916585;29;20789;-71
2021/03/29 15:42:34;;;;;;;4.90;2.75;;;20.10;75.00;;;;;;4915992;29;20692;-72
2021/03/29 15:45:00;;;;;;;5.57;2.53;;;20.10;74.70;;;;;;4916408;29;20209;-73
2021/03/29 15:47:27;;;;;;;4.68;2.65;;;20.10;74.50;;;;;;4916503;29;20277;-69
2021/03/29 15:49:53;;;;;;;3.88;2.15;;;20.20;74.70;;;;;;4917841;29;20240;-72
2021/03/29 15:52:20;;;;;;;3.97;2.33;;;20.20;74.90;;;;;;4917687;29;20613;-72
2021/03/29 15:54:46;;;;;;;5.05;2.72;;;20.20;74.70;;;;;;4917887;29;20209;-72
2021/03/29 15:57:15;;;;;;;5.35;2.45;;;20.20;74.00;;;;;;4917886;29;20220;-70
2021/03/29 15:59:41;;;;;;;4.97;2.50;;;20.10;73.80;;;;;;4917493;29;20706;-73
2021/03/29 16:02:13;;;;;;;3.83;2.53;;;20.10;73.90;;;;;;4917366;29;20700;-69
2021/03/29 16:04:42;;;;;;;7.95;2.72;;;20.10;72.90;;;;;;4917930;29;20602;-72
2021/03/29 16:07:08;;;;;;;4.78;2.70;;;20.00;74.50;;;;;;4917747;29;20216;-69
2021/03/29 16:09:35;;;;;;;5.15;2.55;;;20.00;74.60;;;;;;4917718;29;20241;-67
2021/03/29 16:12:01;;;;;;;5.05;3.00;;;19.90;74.90;;;;;;4917777;29;20214;-69
2021/03/29 16:14:28;;;;;;;7.03;2.88;;;19.80;74.10;;;;;;4916947;29;20245;-68
2021/03/29 16:16:54;;;;;;;5.88;2.90;;;19.80;75.20;;;;;;4917082;29;20649;-69
2021/03/29 16:19:21;;;;;;;6.28;2.83;;;19.90;75.20;;;;;;4917541;29;20237;-70
2021/03/29 16:21:47;;;;;;;6.30;2.80;;;19.90;75.50;;;;;;4917270;29;20221;-69
2021/03/29 16:24:17;;;;;;;8.90;3.67;;;19.80;75.90;;;;;;4917350;29;20217;-69
2021/03/29 16:26:48;;;;;;;8.10;3.30;;;19.80;75.70;;;;;;4917301;29;20212;-69
2021/03/29 16:29:15;;;;;;;6.40;3.40;;;19.80;75.40;;;;;;4917572;29;20224;-68
2021/03/29 16:31:42;;;;;;;7.07;3.25;;;19.80;75.80;;;;;;4917208;29;20668;-69
2021/03/29 16:34:08;;;;;;;7.72;2.97;;;19.80;76.60;;;;;;4917057;29;20222;-68
2021/03/29 16:36:34;;;;;;;6.45;3.42;;;19.80;77.10;;;;;;4935084;29;20616;-69
2021/03/29 16:39:01;;;;;;;5.80;3.13;;;19.70;76.60;;;;;;4935030;29;20212;-71
2021/03/29 16:41:27;;;;;;;6.78;3.58;;;19.70;78.50;;;;;;4919929;29;20237;-70
2021/03/29 16:43:53;;;;;;;6.90;3.33;;;19.60;76.00;;;;;;4897962;29;20210;-71
2021/03/29 16:46:19;;;;;;;6.25;3.20;;;19.60;76.50;;;;;;4897835;29;20214;-71
2021/03/29 16:48:46;;;;;;;5.90;2.80;;;19.50;75.80;;;;;;4897642;29;20218;-71
2021/03/29 16:51:13;;;;;;;8.95;3.92;;;19.50;76.70;;;;;;4897454;29;20245;-70
2021/03/29 16:53:39;;;;;;;8.43;3.63;;;19.50;76.80;;;;;;4914184;29;20214;-70
2021/03/29 16:56:06;;;;;;;7.10;3.53;;;19.40;76.70;;;;;;4916245;29;20213;-70
2021/03/29 16:58:32;;;;;;;5.35;3.03;;;19.40;76.50;;;;;;4916465;29;20217;-71
2021/03/29 17:00:58;;;;;;;8.60;3.63;;;19.30;77.20;;;;;;4915531;29;20237;-73
2021/03/29 17:03:25;;;;;;;5.87;3.10;;;19.30;77.20;;;;;;4916153;29;20217;-72
2021/03/29 17:05:52;;;;;;;6.90;3.43;;;19.20;76.30;;;;;;4915999;29;20669;-71
2021/03/29 17:08:18;;;;;;;6.47;3.50;;;19.10;77.60;;;;;;4915670;29;20224;-71
2021/03/29 17:10:44;;;;;;;7.87;3.50;;;19.00;78.00;;;;;;4915824;29;20233;-72
2021/03/29 17:13:10;;;;;;;6.93;3.20;;;18.90;77.40;;;;;;4916126;29;20252;-70
2021/03/29 17:15:37;;;;;;;8.73;3.83;;;18.90;77.70;;;;;;4915671;29;20582;-71
2021/03/29 17:18:04;;;;;;;6.47;3.47;;;18.80;77.50;;;;;;4915834;29;20212;-68
2021/03/29 17:20:30;;;;;;;8.47;3.90;;;18.70;77.20;;;;;;4914805;29;20252;-67
2021/03/29 17:22:59;;;;;;;6.63;3.37;;;18.70;77.40;;;;;;4914890;29;20224;-68
2021/03/29 17:25:25;;;;;;;7.07;3.97;;;18.60;78.30;;;;;;4913120;29;20605;-68
2021/03/29 17:27:51;;;;;;;6.20;3.17;;;18.70;78.30;;;;;;4916259;29;20697;-67
2021/03/29 17:30:18;;;;;;;10.47;4.33;;;18.70;78.70;;;;;;4916539;29;20229;-67
2021/03/29 17:32:45;;;;;;;7.93;3.97;;;18.70;79.60;;;;;;4917049;29;20213;-67
2021/03/29 17:35:13;;;;;;;6.37;3.33;;;18.60;78.40;;;;;;4916569;29;20216;-67
2021/03/29 17:37:39;;;;;;;8.03;4.33;;;18.60;78.60;;;;;;4916722;29;20693;-67
2021/03/29 17:40:09;;;;;;;6.73;3.30;;;18.40;79.80;;;;;;4916520;29;20241;-67
2021/03/29 17:42:35;;;;;;;9.00;4.13;;;18.40;80.00;;;;;;4916695;29;20209;-67
2021/03/29 17:45:01;;;;;;;9.57;3.83;;;18.30;80.20;;;;;;4916607;29;20209;-67
2021/03/29 17:47:28;;;;;;;9.10;3.80;;;18.30;81.50;;;;;;4916695;29;20668;-67
2021/03/29 17:49:54;;;;;;;7.13;3.37;;;18.20;80.30;;;;;;4916814;29;20230;-67
2021/03/29 17:52:20;;;;;;;6.60;3.77;;;18.10;80.40;;;;;;4916570;29;20210;-67
2021/03/29 17:54:47;;;;;;;5.67;3.37;;;18.00;80.50;;;;;;4916951;29;20209;-68
2021/03/29 17:57:15;;;;;;;10.10;4.07;;;17.90;81.10;;;;;;4920372;29;20311;-67
2021/03/29 17:59:42;;;;;;;8.53;3.63;;;17.80;81.70;;;;;;4920325;29;20237;-67
2021/03/29 18:02:09;;;;;;;10.73;3.93;;;17.70;81.90;;;;;;4920495;29;20218;-67
2021/03/29 18:04:35;;;;;;;6.80;3.57;;;17.60;82.40;;;;;;4920446;29;20313;-67
2021/03/29 18:07:02;;;;;;;9.57;3.70;;;17.50;84.20;;;;;;4920369;29;20212;-67
2021/03/29 18:09:28;;;;;;;6.80;3.57;;;17.30;84.80;;;;;;4920198;29;20332;-67
2021/03/29 18:11:56;;;;;;;8.73;4.27;;;17.20;85.40;;;;;;4920260;29;20221;-67
2021/03/29 18:14:23;;;;;;;9.90;4.10;;;17.00;85.10;;;;;;4920420;29;20219;-67
2021/03/29 18:16:49;;;;;;;9.77;3.83;;;16.90;88.20;;;;;;4920362;29;20212;-67
2021/03/29 18:19:16;;;;;;;9.00;3.77;;;16.80;89.10;;;;;;4919918;29;20627;-67
2021/03/29 18:21:42;;;;;;;9.50;3.73;;;16.60;89.90;;;;;;4920109;29;20210;-68
2021/03/29 18:24:09;;;;;;;6.50;3.50;;;16.50;90.20;;;;;;4918472;29;20736;-68
2021/03/29 18:26:36;;;;;;;6.80;3.33;;;16.30;90.80;;;;;;4919430;29;20217;-68
2021/03/29 18:29:02;;;;;;;6.57;3.23;;;16.20;91.50;;;;;;4918518;29;20213;-69
2021/03/29 18:31:29;;;;;;;7.47;2.90;;;16.10;91.60;;;;;;4919414;29;20237;-68
2021/03/29 18:33:55;;;;;;;8.37;3.37;;;15.90;92.20;;;;;;4919569;29;20209;-69
2021/03/29 18:36:21;;;;;;;6.70;3.13;;;15.70;92.40;;;;;;4919305;29;20206;-69
2021/03/29 18:38:48;;;;;;;7.43;3.43;;;15.50;92.90;;;;;;4918926;29;20249;-69
2021/03/29 18:41:19;;;;;;;7.00;3.23;;;15.40;92.60;;;;;;4919055;29;20237;-70
2021/03/29 18:43:45;;;;;;;7.50;3.20;;;15.30;93.20;;;;;;4918795;29;20257;-69
2021/03/29 18:46:12;;;;;;;6.77;3.17;;;15.20;93.70;;;;;;4919149;29;20210;-70
2021/03/29 18:48:39;;;;;;;6.67;3.20;;;15.10;94.30;;;;;;4919225;29;20213;-68
2021/03/29 18:51:06;;;;;;;7.93;3.50;;;15.00;94.60;;;;;;4918859;29;20236;-72
2021/03/29 18:53:36;;;;;;;6.67;3.30;;;14.80;95.10;;;;;;4918260;29;20292;-69
2021/03/29 18:56:12;;;;;;;7.57;3.57;;;14.70;95.40;;;;;;4918404;29;20284;-69
2021/03/29 18:58:39;;;;;;;6.30;3.87;;;14.60;95.60;;;;;;4918975;29;20213;-69
2021/03/29 19:01:06;;;;;;;7.53;3.27;;;14.40;96.00;;;;;;4918221;29;20301;-69
2021/03/29 19:03:32;;;;;;;8.90;3.90;;;14.30;96.30;;;;;;4918318;29;20665;-69
